August 13, 2022

Time Code Weather Temp. Visibility Ceiling Wind METAR/SPECI
9:53 pm
V
72 °F 10 mi - 300° 300° 3 kt METAR KLAX 140453Z 30003KT 10SM CLR 22/16 A2995 RMK AO2 SLP138 T02220161
8:53 pm
V
73 °F 10 mi - 260° 260° 7 kt METAR KLAX 140353Z 26007KT 10SM FEW120 SCT250 23/15 A2993 RMK AO2 SLP131 T02280150
7:53 pm
V
72 °F 10 mi - 250° 250° 5 kt METAR KLAX 140253Z 25005KT 10SM FEW120 SCT250 22/17 A2991 RMK AO2 SLP126 T02170172 53002
6:53 pm
V
73 °F 10 mi - 260° 260° 8 kt METAR KLAX 140153Z 26008KT 10SM FEW100 SCT150 SCT250 23/17 A2989 RMK AO2 SLP119 T02330167
5:53 pm
V
75 °F 10 mi - 250° 250° 11 kt METAR KLAX 140053Z 25011KT 10SM FEW100 SCT150 SCT300 24/16 A2989 RMK AO2 SLP118 T02440156
4:53 pm
V
77 °F 10 mi - 260° 260° 11 kt METAR KLAX 132353Z 26011KT 10SM FEW100 SCT150 SCT300 25/16 A2990 RMK AO2 SLP124 T02500156 10278 20244 57009
3:53 pm
V
79 °F 10 mi - 260° 260° 11 kt METAR KLAX 132253Z 26011KT 10SM FEW120 FEW150 SCT300 26/14 A2991 RMK AO2 SLP126 T02560144
2:53 pm
V
79 °F 10 mi - 260° 260° 13 kt METAR KLAX 132153Z 26013KT 10SM FEW100 FEW150 SCT300 26/14 A2992 RMK AO2 SLP129 T02560144
1:53 pm
V
81 °F 10 mi - 260° 260° 11 kt METAR KLAX 132053Z 26011KT 10SM FEW100 FEW150 FEW300 27/16 A2993 RMK AO2 SLP132 CB DSNT E-SE T02670156 58010
12:53 pm
V
81 °F 10 mi - 260° 260° 10 kt METAR KLAX 131953Z 26010KT 10SM FEW100 FEW150 FEW280 27/17 A2993 RMK AO2 SLP135 CB DSNT E-SE T02670172
11:53 am
V
79 °F 10 mi - 260° 260° 11 kt METAR KLAX 131853Z 26011KT 10SM FEW100 FEW150 FEW280 26/17 A2995 RMK AO2 SLP140 T02560172
10:53 am
V
77 °F 10 mi - 280° 280° 8 kt METAR KLAX 131753Z 28008KT 10SM FEW100 FEW140 FEW300 25/17 A2996 RMK AO2 SLP142 T02500172 10256 20194 53006
9:53 am
V
75 °F 10 mi - 270° 270° 7 kt METAR KLAX 131653Z 27007KT 10SM FEW007 FEW100 FEW140 SCT300 24/17 A2995 RMK AO2 SLP139 T02440172
8:53 am
V
75 °F 10 mi - 240° 240° 5 kt METAR KLAX 131553Z 24005KT 10SM FEW007 FEW150 FEW300 24/17 A2994 RMK AO2 SLP137 T02390167
7:53 am
V
72 °F 9 mi - 330° 330° 4 kt METAR KLAX 131453Z 33004KT 9SM FEW150 SCT300 22/17 A2994 RMK AO2 SLP137 T02170167 53007
6:53 am
V
70 °F 9 mi - 300° 300° 3 kt METAR KLAX 131353Z 30003KT 9SM FEW150 FEW280 21/17 A2993 RMK AO2 SLP134 T02060167
5:53 am
V
70 °F 10 mi - Var 000° 0 kt METAR KLAX 131253Z 00000KT 10SM FEW150 21/16 A2993 RMK AO2 SLP131 T02060161
4:53 am
V
68 °F 10 mi - 070° 070° 3 kt METAR KLAX 131153Z 07003KT 10SM CLR 20/17 A2992 RMK AO2 SLP130 T02000167 10217 20194 53000
3:53 am
V
68 °F 10 mi - Var 000° 0 kt METAR KLAX 131053Z 00000KT 10SM CLR 20/17 A2992 RMK AO2 SLP130 T02000167
2:53 am
V
70 °F 10 mi - Var 000° 0 kt METAR KLAX 130953Z 00000KT 10SM CLR 21/17 A2992 RMK AO2 SLP128 T02060167
1:53 am
V
70 °F 9 mi - 310° 310° 4 kt METAR KLAX 130853Z 31004KT 9SM CLR 21/17 A2992 RMK AO2 SLP130 T02060167 58003
12:53 am
V
70 °F 9 mi - 270° 270° 4 kt METAR KLAX 130753Z 27004KT 9SM CLR 21/17 A2994 RMK AO2 SLP135 T02060167 402610194

August 12, 2022

Time Code Weather Temp. Visibility Ceiling Wind METAR/SPECI
11:53 pm
V
70 °F 9 mi - 240° 240° 3 kt METAR KLAX 130653Z 24003KT 9SM CLR 21/17 A2994 RMK AO2 SLP138 T02060167
10:53 pm
V
70 °F 10 mi - 200° 200° 5 kt METAR KLAX 130553Z 20005KT 10SM CLR 21/17 A2993 RMK AO2 SLP132 T02110172 10244 20211 51018
9:53 pm
V
70 °F 10 mi - 190° 190° 5 kt METAR KLAX 130453Z 19005KT 10SM FEW150 21/18 A2992 RMK AO2 SLP128 T02110178
8:53 pm
V
72 °F 10 mi - 270° 270° 9 kt METAR KLAX 130353Z 27009KT 10SM FEW150 22/16 A2990 RMK AO2 SLP121 T02170161
7:53 pm
V
73 °F 10 mi - 230° 230° 7 kt METAR KLAX 130253Z 23007KT 10SM FEW070 SCT150 23/16 A2988 RMK AO2 SLP115 T02280156 55001
6:53 pm
V
73 °F 10 mi - 220° 220° 9 kt METAR KLAX 130153Z 22009KT 10SM FEW080 SCT150 23/16 A2987 RMK AO2 SLP113 T02280161
5:53 pm
V
75 °F 10 mi - 260° 260° 12 kt METAR KLAX 130053Z 26012KT 10SM FEW080 FEW150 24/15 A2987 RMK AO2 SLP113 T02390150
4:53 pm
V
77 °F 10 mi - 270° 270° 14 kt METAR KLAX 122353Z 27014KT 10SM FEW080 FEW150 25/14 A2988 RMK AO2 SLP117 T02500144 10261 20239 56016
3:53 pm
V
77 °F 10 mi - 260° 260° 14 kt METAR KLAX 122253Z 26014KT 10SM FEW100 25/14 A2989 RMK AO2 SLP119 T02500144
2:53 pm
V
79 °F 10 mi - 250° 250° 13 kt METAR KLAX 122153Z 25013KT 10SM FEW080 FEW120 26/15 A2991 RMK AO2 SLP126 T02560150
1:53 pm
V
77 °F 10 mi - 260° 260° 13 kt METAR KLAX 122053Z 26013KT 10SM FEW080 FEW120 25/16 A2993 RMK AO2 SLP132 T02500156 58013 $
12:53 pm
V
77 °F 10 mi - 270° 270° 12 kt METAR KLAX 121953Z 27012KT 10SM FEW100 FEW140 SCT180 25/16 A2994 RMK AO2 SLP136 T02500161 $
11:53 am
V
75 °F 10 mi - 250° 250° 9 kt METAR KLAX 121853Z 25009KT 10SM FEW090 FEW140 SCT180 24/17 A2995 RMK AO2 SLP141 T02440172 $
10:53 am
V
77 °F 10 mi - 260° 260° 8 kt METAR KLAX 121753Z 26008KT 10SM FEW090 FEW140 SCT180 25/17 A2996 RMK AO2 SLP145 T02500172 10250 20194 51006 $
9:53 am
V
75 °F 10 mi - 260° 260° 7 kt METAR KLAX 121653Z 26007KT 10SM FEW140 FEW180 24/17 A2996 RMK AO2 SLP143 T02390172 $
8:53 am
V
73 °F 10 mi - 250° 250° 4 kt METAR KLAX 121553Z 25004KT 10SM FEW120 FEW180 SCT250 23/17 A2996 RMK AO2 SLP143 T02330172 $
7:53 am
V
72 °F 10 mi - 220° 220° 3 kt METAR KLAX 121453Z 22003KT 10SM FEW120 FEW180 SCT250 22/17 A2995 RMK AO2 SLP139 T02170172 51009 $
6:53 am
V
68 °F 10 mi - Var 000° 0 kt METAR KLAX 121353Z 00000KT 10SM FEW200 FEW280 20/17 A2994 RMK AO2 SLP137 T02000172 $
5:53 am
V
66 °F 10 mi - 240° 240° 4 kt METAR KLAX 121253Z 24004KT 10SM FEW200 FEW280 19/17 A2993 RMK AO2 SLP132 T01940172 $
4:53 am
V
66 °F 10 mi - 250° 250° 3 kt METAR KLAX 121153Z 25003KT 10SM CLR 19/17 A2992 RMK AO2 SLP130 T01940172 10211 20194 58003 $
3:53 am
V
68 °F 10 mi - 250° 250° 5 kt METAR KLAX 121053Z 25005KT 10SM FEW250 20/17 A2992 RMK AO2 SLP131 T02000167 $
2:53 am
V
68 °F 10 mi - 270° 270° 3 kt METAR KLAX 120953Z 27003KT 10SM FEW200 20/17 A2993 RMK AO2 SLP132 T02000167 $
1:53 am
V
70 °F 10 mi - Var 000° 0 kt METAR KLAX 120853Z 00000KT 10SM FEW200 21/16 A2993 RMK AO2 SLP133 T02060161 58007 $
12:53 am
V
70 °F 10 mi - 200° 200° 3 kt METAR KLAX 120753Z 20003KT 10SM FEW200 21/16 A2995 RMK AO2 SLP137 T02110156 402670200 $

August 11, 2022

Time Code Weather Temp. Visibility Ceiling Wind METAR/SPECI
11:53 pm
V
70 °F 10 mi - Var 000° 0 kt METAR KLAX 120653Z 00000KT 10SM FEW200 21/16 A2995 RMK AO2 SLP140 T02110161 $
10:53 pm
V
70 °F 10 mi - 180° 180° 6 kt METAR KLAX 120553Z 18006KT 10SM FEW200 21/16 A2995 RMK AO2 SLP140 T02060161 10239 20206 51008 $
9:53 pm
V
70 °F 10 mi - 210° 210° 5 kt METAR KLAX 120453Z 21005KT 10SM CLR 21/16 A2995 RMK AO2 SLP140 T02110161 $
8:53 pm
V
70 °F 10 mi - 230° 230° 7 kt METAR KLAX 120353Z 23007KT 10SM FEW250 21/16 A2994 RMK AO2 SLP136 T02110156 $
7:53 pm
V
70 °F 10 mi - 250° 250° 10 kt METAR KLAX 120253Z 25010KT 10SM FEW250 21/16 A2993 RMK AO2 SLP132 T02110156 55000 $
Older data

We and third parties follow your internet behavior on our website with cookies. If you continue, we assume you agree with our cookie policy. Learn more